createdAt,value
2024-02-22T00:01:12.244Z,95749.94
2024-02-22T00:03:39.473Z,95749.41
2024-02-22T00:06:06.666Z,95758.97
2024-02-22T00:08:33.421Z,95752.53
2024-02-22T00:11:00.380Z,95751.44
2024-02-22T00:13:27.635Z,95756.22
2024-02-22T00:15:54.417Z,95742.06
2024-02-22T00:18:21.517Z,95739.19
2024-02-22T00:20:48.501Z,95737.03
2024-02-22T00:23:15.234Z,95730.13
2024-02-22T00:25:42.026Z,95731.69
2024-02-22T00:28:08.730Z,95711.97
2024-02-22T00:30:35.491Z,95718.31
2024-02-22T00:33:02.185Z,95718.84
2024-02-22T00:35:30.042Z,95714.59
2024-02-22T00:37:56.905Z,95704.94
2024-02-22T00:40:23.798Z,95696.34
2024-02-22T00:42:50.457Z,95690.50
2024-02-22T00:45:17.326Z,95692.22
2024-02-22T00:47:44.028Z,95680.16
2024-02-22T00:50:11.023Z,95677.94
2024-02-22T00:52:37.916Z,95670.94
2024-02-22T00:55:05.068Z,95656.81
2024-02-22T00:57:31.860Z,95653.81
2024-02-22T00:59:58.604Z,95644.44
2024-02-22T01:02:27.667Z,95637.41
2024-02-22T01:04:54.823Z,95630.16
2024-02-22T01:07:24.873Z,95619.97
2024-02-22T01:09:51.530Z,95610.78
2024-02-22T01:12:18.224Z,95608.13
2024-02-22T01:14:44.925Z,95601.00
2024-02-22T01:17:11.763Z,95589.50
2024-02-22T01:19:38.620Z,95588.88
2024-02-22T01:22:05.600Z,95586.41
2024-02-22T01:24:32.984Z,95570.63
2024-02-22T01:26:59.784Z,95568.00
2024-02-22T01:29:27.818Z,95570.78
2024-02-22T01:31:54.615Z,95559.09
2024-02-22T01:34:21.458Z,95556.59
2024-02-22T01:36:49.126Z,95555.19
2024-02-22T01:39:16.107Z,95553.13
2024-02-22T01:41:42.825Z,95536.47
2024-02-22T01:44:09.735Z,95537.91
2024-02-22T01:46:36.539Z,95537.81
2024-02-22T01:49:04.096Z,95532.97
2024-02-22T01:51:31.296Z,95531.91
2024-02-22T01:53:58.572Z,95527.91
2024-02-22T01:56:25.707Z,95524.38
2024-02-22T01:58:53.633Z,95524.97
2024-02-22T02:01:23.511Z,95520.75
2024-02-22T02:03:54.427Z,95514.47
2024-02-22T02:06:21.404Z,95514.97
2024-02-22T02:08:49.017Z,95506.53
2024-02-22T02:11:16.224Z,95495.91
2024-02-22T02:13:43.025Z,95491.09
2024-02-22T02:16:09.766Z,95488.19
2024-02-22T02:18:36.586Z,95476.50
2024-02-22T02:21:30.285Z,95470.94
2024-02-22T02:24:12.129Z,95464.66
2024-02-22T02:26:38.933Z,95465.97
2024-02-22T02:29:05.732Z,95460.94
2024-02-22T02:31:32.562Z,95459.47
2024-02-22T02:33:59.340Z,95450.84
2024-02-22T02:36:26.035Z,95442.31
2024-02-22T02:38:52.732Z,95440.19
2024-02-22T02:41:19.594Z,95437.44
2024-02-22T02:43:46.378Z,95434.72
2024-02-22T02:46:13.144Z,95420.91
2024-02-22T02:48:40.005Z,95416.59
2024-02-22T02:51:06.770Z,95417.66
2024-02-22T02:53:33.467Z,95410.22
2024-02-22T02:56:00.181Z,95411.59
2024-02-22T02:58:27.009Z,95400.69
2024-02-22T03:00:53.741Z,95394.34
2024-02-22T03:03:20.459Z,95390.97
2024-02-22T03:05:47.393Z,95389.69
2024-02-22T03:08:14.271Z,95390.25
2024-02-22T03:10:41.034Z,95376.41
2024-02-22T03:13:09.633Z,95379.06
2024-02-22T03:15:39.892Z,95365.31
2024-02-22T03:18:10.428Z,95368.47
2024-02-22T03:20:37.198Z,95367.09
2024-02-22T03:23:04.158Z,95359.50
2024-02-22T03:25:30.990Z,95359.28
2024-02-22T03:28:00.315Z,95354.44
2024-02-22T03:30:28.761Z,95361.31
2024-02-22T03:32:55.965Z,95358.03
2024-02-22T03:35:24.176Z,95345.91
2024-02-22T03:37:51.877Z,95346.03
2024-02-22T03:40:18.754Z,95353.41
2024-02-22T03:42:45.830Z,95344.84
2024-02-22T03:45:12.833Z,95341.63
2024-02-22T03:47:39.768Z,95337.88
2024-02-22T03:50:07.215Z,95336.00
2024-02-22T03:52:33.934Z,95340.53
2024-02-22T03:55:00.708Z,95340.03
2024-02-22T03:57:27.387Z,95331.53
2024-02-22T03:59:54.206Z,95328.00
2024-02-22T04:02:21.492Z,95325.88
2024-02-22T04:04:52.342Z,95329.03
2024-02-22T04:07:19.349Z,95331.91
2024-02-22T04:09:46.399Z,95324.50
2024-02-22T04:12:13.231Z,95325.06
2024-02-22T04:14:40.021Z,95327.16
2024-02-22T04:17:06.874Z,95326.88
2024-02-22T04:19:33.712Z,95324.16
2024-02-22T04:22:00.573Z,95317.44
2024-02-22T04:24:27.330Z,95307.31
2024-02-22T04:26:54.066Z,95316.66
2024-02-22T04:29:21.194Z,95300.31
2024-02-22T04:31:48.656Z,95290.91
2024-02-22T04:34:15.545Z,95304.44
2024-02-22T04:36:42.896Z,95294.19
2024-02-22T04:39:12.727Z,95285.75
2024-02-22T04:41:40.084Z,95266.53
2024-02-22T04:44:07.077Z,95257.91
2024-02-22T04:46:36.840Z,95257.00
2024-02-22T04:49:06.063Z,95256.41
2024-02-22T04:51:34.155Z,95251.25
2024-02-22T04:54:03.011Z,95248.59
2024-02-22T04:56:30.025Z,95256.53
2024-02-22T04:58:57.559Z,95247.88
2024-02-22T05:01:26.046Z,95242.22
2024-02-22T05:03:53.079Z,95242.34
2024-02-22T05:06:20.223Z,95247.03
2024-02-22T05:08:46.940Z,95234.69
2024-02-22T05:11:13.839Z,95231.22
2024-02-22T05:13:43.670Z,95220.19
2024-02-22T05:16:10.425Z,95207.94
2024-02-22T05:18:38.914Z,95198.53
2024-02-22T05:21:06.276Z,95201.16
2024-02-22T05:23:32.940Z,95195.09
2024-02-22T05:25:59.705Z,95192.13
2024-02-22T05:28:26.551Z,95193.31
2024-02-22T05:30:53.538Z,95194.19
2024-02-22T05:33:20.347Z,95194.63
2024-02-22T05:35:47.696Z,95177.84
2024-02-22T05:38:14.814Z,95175.31
2024-02-22T05:40:42.779Z,95166.44
2024-02-22T05:43:10.009Z,95157.75
2024-02-22T05:45:45.984Z,95152.91
2024-02-22T05:48:13.080Z,95149.75
2024-02-22T05:50:39.848Z,95139.56
2024-02-22T05:53:07.123Z,95137.97
2024-02-22T05:55:33.939Z,95139.75
2024-02-22T05:58:00.865Z,95135.22
2024-02-22T06:00:27.630Z,95125.31
2024-02-22T06:02:54.544Z,95122.00
2024-02-22T06:05:21.498Z,95116.75
2024-02-22T06:07:48.270Z,95120.72
2024-02-22T06:10:15.112Z,95118.84
2024-02-22T06:12:44.203Z,95106.19
2024-02-22T06:15:11.441Z,95108.56
2024-02-22T06:17:38.131Z,95101.88
2024-02-22T06:20:07.356Z,95112.13
2024-02-22T06:22:34.882Z,95115.38
2024-02-22T06:25:01.798Z,95118.63
2024-02-22T06:27:29.867Z,95122.38
2024-02-22T06:29:56.991Z,95126.75
2024-02-22T06:32:25.332Z,95137.59
2024-02-22T06:34:52.615Z,95143.94
2024-02-22T06:37:19.939Z,95137.00
2024-02-22T06:39:46.835Z,95137.75
2024-02-22T06:42:14.211Z,95139.75
2024-02-22T06:44:40.897Z,95126.53
2024-02-22T06:47:07.638Z,95124.69
2024-02-22T06:49:34.674Z,95130.94
2024-02-22T06:52:01.908Z,95127.16
2024-02-22T06:54:29.443Z,95125.38
2024-02-22T06:56:56.103Z,95125.09
2024-02-22T06:59:22.924Z,95118.56
2024-02-22T07:01:50.127Z,95122.22
2024-02-22T07:04:17.366Z,95124.00
2024-02-22T07:06:44.191Z,95121.63
2024-02-22T07:09:12.879Z,95126.38
2024-02-22T07:11:39.849Z,95114.50
2024-02-22T07:14:07.034Z,95116.47
2024-02-22T07:16:34.231Z,95121.41
2024-02-22T07:19:01.285Z,95105.78
2024-02-22T07:21:35.837Z,95105.03
2024-02-22T07:24:05.188Z,95090.59
2024-02-22T07:26:32.363Z,95101.66
2024-02-22T07:29:02.298Z,95088.31
2024-02-22T07:31:29.197Z,95086.41
2024-02-22T07:33:56.011Z,95076.91
2024-02-22T07:36:23.094Z,95074.22
2024-02-22T07:38:49.765Z,95069.88
2024-02-22T07:41:17.436Z,95069.06
2024-02-22T07:43:45.442Z,95062.03
2024-02-22T07:46:13.069Z,95059.13
2024-02-22T07:48:40.844Z,95066.41
2024-02-22T07:51:08.772Z,95040.19
2024-02-22T07:53:36.466Z,95043.34
2024-02-22T07:56:08.672Z,95034.00
2024-02-22T07:58:53.825Z,95037.50
2024-02-22T08:01:21.211Z,95028.94
2024-02-22T08:03:49.772Z,95023.34
2024-02-22T08:06:17.286Z,95015.53
2024-02-22T08:08:44.364Z,95021.41
2024-02-22T08:11:12.577Z,95003.50
2024-02-22T08:13:39.731Z,95006.66
2024-02-22T08:16:10.161Z,95007.91
2024-02-22T08:18:38.398Z,94996.25
2024-02-22T08:21:07.515Z,95003.50
2024-02-22T08:23:34.649Z,94997.38
2024-02-22T08:26:01.604Z,94996.44
2024-02-22T08:28:29.837Z,94981.53
2024-02-22T08:30:56.739Z,94991.19
2024-02-22T08:33:27.389Z,94985.06
2024-02-22T08:35:58.793Z,94979.06
2024-02-22T08:38:27.371Z,94980.66
2024-02-22T08:40:54.369Z,94988.53
2024-02-22T08:43:21.268Z,94983.53
2024-02-22T08:45:52.273Z,94974.91
2024-02-22T08:48:19.342Z,94970.50
2024-02-22T08:50:45.997Z,94964.03
2024-02-22T08:53:12.868Z,94953.47
2024-02-22T08:55:39.676Z,94952.06
2024-02-22T08:58:06.546Z,94949.50
2024-02-22T09:00:33.428Z,94952.69
2024-02-22T09:03:00.192Z,94944.78
2024-02-22T09:05:28.410Z,94958.34
2024-02-22T09:07:55.616Z,94948.25
2024-02-22T09:10:22.673Z,94954.72
2024-02-22T09:12:49.373Z,94960.38
2024-02-22T09:15:16.074Z,94952.66
2024-02-22T09:17:42.885Z,94950.31
2024-02-22T09:20:13.881Z,94950.78
2024-02-22T09:22:42.472Z,94958.34
2024-02-22T09:25:10.463Z,94962.28
2024-02-22T09:27:37.783Z,94966.06
2024-02-22T09:30:05.355Z,94969.41
2024-02-22T09:32:32.438Z,94953.00
2024-02-22T09:34:59.317Z,94954.41
2024-02-22T09:37:28.407Z,94952.97
2024-02-22T09:39:55.323Z,94954.53
2024-02-22T09:42:29.035Z,94962.34
2024-02-22T09:44:57.239Z,94942.63
2024-02-22T09:47:24.389Z,94944.00
2024-02-22T09:49:51.258Z,94941.69
2024-02-22T09:52:21.403Z,94936.75
2024-02-22T09:54:49.237Z,94926.53
2024-02-22T09:57:16.204Z,94921.78
2024-02-22T09:59:51.051Z,94921.28
2024-02-22T10:02:19.096Z,94926.44
2024-02-22T10:04:57.173Z,94921.16
2024-02-22T10:07:37.190Z,94919.66
2024-02-22T10:10:04.475Z,94918.38
2024-02-22T10:12:35.312Z,94925.19
2024-02-22T10:15:10.522Z,94917.47
2024-02-22T10:17:38.263Z,94920.44
2024-02-22T10:20:11.094Z,94911.34
2024-02-22T10:22:39.130Z,94911.41
2024-02-22T10:25:17.641Z,94908.28
2024-02-22T10:27:51.345Z,94895.41
2024-02-22T10:30:19.608Z,94891.72
2024-02-22T10:32:48.681Z,94884.19
2024-02-22T10:35:16.433Z,94888.25
2024-02-22T10:37:44.234Z,94888.09
2024-02-22T10:40:12.868Z,94894.84
2024-02-22T10:42:40.678Z,94890.78
2024-02-22T10:45:09.117Z,94884.88
2024-02-22T10:47:37.950Z,94878.28
2024-02-22T10:50:07.052Z,94869.06
2024-02-22T10:52:42.022Z,94872.38
2024-02-22T10:55:15.292Z,94866.00
2024-02-22T10:57:51.880Z,94853.88
2024-02-22T11:00:18.614Z,94866.19
2024-02-22T11:02:46.890Z,94861.44
2024-02-22T11:05:14.342Z,94861.56
2024-02-22T11:07:59.198Z,94853.09
2024-02-22T11:10:26.892Z,94842.84
2024-02-22T11:12:53.629Z,94848.84
2024-02-22T11:15:26.325Z,94843.72
2024-02-22T11:17:59.001Z,94833.88
2024-02-22T11:20:37.272Z,94829.25
2024-02-22T11:23:14.471Z,94825.56
2024-02-22T11:25:41.830Z,94821.53
2024-02-22T11:28:09.977Z,94823.94
2024-02-22T11:30:36.864Z,94816.81
2024-02-22T11:33:03.815Z,94816.38
2024-02-22T11:35:31.024Z,94807.63
2024-02-22T11:38:05.955Z,94809.00
2024-02-22T11:40:36.815Z,94790.19
2024-02-22T11:43:04.633Z,94784.75
2024-02-22T11:45:32.763Z,94762.72
2024-02-22T11:48:00.143Z,94763.44
2024-02-22T11:50:29.353Z,94745.56
2024-02-22T11:52:57.011Z,94741.44
2024-02-22T11:55:24.406Z,94733.81
2024-02-22T11:57:51.113Z,94730.28
2024-02-22T12:00:18.113Z,94725.63
2024-02-22T12:02:45.261Z,94715.84
2024-02-22T12:05:13.935Z,94708.34
2024-02-22T12:07:41.613Z,94699.28
2024-02-22T12:10:11.018Z,94698.44
2024-02-22T12:12:40.701Z,94699.13
2024-02-22T12:15:08.190Z,94682.94
2024-02-22T12:17:35.833Z,94671.00
2024-02-22T12:20:04.340Z,94663.84
2024-02-22T12:22:35.738Z,94655.41
2024-02-22T12:25:02.672Z,94659.50
2024-02-22T12:27:29.797Z,94660.78
2024-02-22T12:29:58.904Z,94644.94
2024-02-22T12:32:26.018Z,94632.38
2024-02-22T12:34:54.467Z,94637.00
2024-02-22T12:37:21.771Z,94631.22
2024-02-22T12:39:49.390Z,94651.53
2024-02-22T12:42:16.364Z,94646.31
2024-02-22T12:44:43.330Z,94638.25
2024-02-22T12:47:13.385Z,94628.75
2024-02-22T12:49:40.381Z,94624.28
2024-02-22T12:52:07.763Z,94614.41
2024-02-22T12:54:35.020Z,94598.91
2024-02-22T12:57:01.751Z,94586.06
2024-02-22T12:59:30.360Z,94590.88
2024-02-22T13:01:57.190Z,94584.47
2024-02-22T13:04:24.029Z,94567.50
2024-02-22T13:06:50.718Z,94566.72
2024-02-22T13:09:17.512Z,94558.13
2024-02-22T13:11:44.511Z,94537.91
2024-02-22T13:14:11.307Z,94533.72
2024-02-22T13:16:38.401Z,94537.19
2024-02-22T13:19:05.773Z,94536.19
2024-02-22T13:21:32.651Z,94529.81
2024-02-22T13:23:59.379Z,94527.88
2024-02-22T13:26:26.294Z,94525.75
2024-02-22T13:28:52.975Z,94513.13
2024-02-22T13:31:21.080Z,94510.03
2024-02-22T13:33:49.489Z,94500.00
2024-02-22T13:36:16.633Z,94491.06
2024-02-22T13:38:43.753Z,94482.88
2024-02-22T13:41:13.618Z,94474.81
2024-02-22T13:43:42.059Z,94479.13
2024-02-22T13:46:08.859Z,94474.00
2024-02-22T13:48:37.829Z,94475.94
2024-02-22T13:51:06.097Z,94466.81
2024-02-22T13:53:33.026Z,94453.84
2024-02-22T13:55:59.842Z,94455.47
2024-02-22T13:58:26.962Z,94446.66
2024-02-22T14:00:53.701Z,94441.59
2024-02-22T14:03:20.433Z,94440.38
2024-02-22T14:05:52.315Z,94431.03
2024-02-22T14:08:20.694Z,94435.34
2024-02-22T14:10:47.576Z,94427.56
2024-02-22T14:13:14.403Z,94430.69
2024-02-22T14:15:41.818Z,94416.50
2024-02-22T14:18:08.862Z,94417.66
2024-02-22T14:20:36.500Z,94398.69
2024-02-22T14:23:03.339Z,94390.31
2024-02-22T14:25:30.290Z,94384.00
2024-02-22T14:27:57.354Z,94377.03
2024-02-22T14:30:24.048Z,94367.84
2024-02-22T14:32:51.030Z,94361.75
2024-02-22T14:35:19.511Z,94359.47
2024-02-22T14:37:46.529Z,94357.56
2024-02-22T14:40:13.340Z,94353.09
2024-02-22T14:42:40.876Z,94335.91
2024-02-22T14:45:07.925Z,94333.22
2024-02-22T14:47:36.522Z,94323.91
2024-02-22T14:50:05.608Z,94331.59
2024-02-22T14:52:32.366Z,94321.53
2024-02-22T14:54:59.189Z,94327.09
2024-02-22T14:57:25.875Z,94323.41
2024-02-22T14:59:52.679Z,94302.00
2024-02-22T15:02:19.691Z,94299.72
2024-02-22T15:04:46.990Z,94303.72
2024-02-22T15:07:13.862Z,94302.16
2024-02-22T15:09:42.554Z,94302.88
2024-02-22T15:12:09.982Z,94298.66
2024-02-22T15:14:39.437Z,94316.44
2024-02-22T15:17:07.068Z,94312.13
2024-02-22T15:19:35.630Z,94303.09
2024-02-22T15:22:02.884Z,94307.34
2024-02-22T15:24:29.900Z,94302.44
2024-02-22T15:27:03.154Z,94300.31
2024-02-22T15:29:29.870Z,94302.66
2024-02-22T15:31:57.172Z,94305.16
2024-02-22T15:34:25.458Z,94293.06
2024-02-22T15:36:55.607Z,94287.69
2024-02-22T15:39:23.102Z,94276.22
2024-02-22T15:41:50.088Z,94282.31
2024-02-22T15:44:17.367Z,94271.53
2024-02-22T15:46:44.284Z,94282.06
2024-02-22T15:49:16.049Z,94275.81
2024-02-22T15:51:43.549Z,94279.88
2024-02-22T15:54:11.822Z,94291.59
2024-02-22T15:56:38.588Z,94285.63
2024-02-22T15:59:05.413Z,94287.63
2024-02-22T16:01:32.211Z,94287.78
2024-02-22T16:04:00.173Z,94289.78
2024-02-22T16:06:27.020Z,94289.28
2024-02-22T16:08:56.717Z,94286.69
2024-02-22T16:11:23.608Z,94295.88
2024-02-22T16:13:50.408Z,94300.56
2024-02-22T16:16:18.258Z,94293.94
2024-02-22T16:18:45.738Z,94302.34
2024-02-22T16:21:13.186Z,94306.97
2024-02-22T16:23:40.068Z,94295.19
2024-02-22T16:26:06.833Z,94302.41
2024-02-22T16:28:33.559Z,94296.09
2024-02-22T16:31:00.771Z,94309.28
2024-02-22T16:33:31.427Z,94309.31
2024-02-22T16:36:07.060Z,94320.38
2024-02-22T16:38:42.871Z,94308.19
2024-02-22T16:41:26.758Z,94312.44
2024-02-22T16:43:54.617Z,94297.25
2024-02-22T16:46:21.594Z,94301.28
2024-02-22T16:48:51.498Z,94297.38
2024-02-22T16:51:19.966Z,94290.13
2024-02-22T16:53:49.744Z,94285.63
2024-02-22T16:56:17.450Z,94290.31
2024-02-22T16:58:44.383Z,94286.94
2024-02-22T17:01:11.261Z,94284.94
2024-02-22T17:03:38.111Z,94267.47
2024-02-22T17:06:05.279Z,94264.59
2024-02-22T17:08:32.429Z,94275.41
2024-02-22T17:10:59.328Z,94265.00
2024-02-22T17:13:26.156Z,94266.03
2024-02-22T17:15:56.170Z,94256.97
2024-02-22T17:18:23.469Z,94248.66
2024-02-22T17:20:50.137Z,94251.81
2024-02-22T17:23:17.192Z,94256.88
2024-02-22T17:25:44.024Z,94245.91
2024-02-22T17:28:11.123Z,94246.25
2024-02-22T17:30:37.728Z,94243.13
2024-02-22T17:33:04.756Z,94245.34
2024-02-22T17:35:31.459Z,94239.97
2024-02-22T17:37:58.213Z,94249.84
2024-02-22T17:40:25.041Z,94238.22
2024-02-22T17:42:52.036Z,94232.88
2024-02-22T17:45:18.702Z,94233.13
2024-02-22T17:47:45.471Z,94225.97
2024-02-22T17:50:12.320Z,94222.94
2024-02-22T17:52:39.230Z,94218.47
2024-02-22T17:55:11.216Z,94223.09
2024-02-22T17:57:38.235Z,94216.38
2024-02-22T18:00:06.697Z,94212.94
2024-02-22T18:02:33.857Z,94219.50
2024-02-22T18:05:00.788Z,94215.94
2024-02-22T18:07:27.581Z,94217.28
2024-02-22T18:09:54.345Z,94219.75
2024-02-22T18:12:24.807Z,94207.13
2024-02-22T18:14:52.562Z,94215.28
2024-02-22T18:17:19.439Z,94211.03
2024-02-22T18:19:46.193Z,94208.69
2024-02-22T18:22:12.916Z,94210.81
2024-02-22T18:24:43.867Z,94211.38
2024-02-22T18:27:10.868Z,94201.66
2024-02-22T18:29:39.516Z,94208.38
2024-02-22T18:32:07.193Z,94208.94
2024-02-22T18:34:34.244Z,94210.03
2024-02-22T18:37:03.617Z,94199.66
2024-02-22T18:39:31.345Z,94202.75
2024-02-22T18:41:58.361Z,94197.41
2024-02-22T18:44:25.350Z,94198.06
2024-02-22T18:46:52.266Z,94192.28
2024-02-22T18:49:19.067Z,94190.94
2024-02-22T18:51:45.823Z,94194.72
2024-02-22T18:54:12.539Z,94199.41
2024-02-22T18:56:40.115Z,94202.56
2024-02-22T18:59:06.931Z,94204.91
2024-02-22T19:01:34.078Z,94193.38
2024-02-22T19:04:01.107Z,94194.97
2024-02-22T19:06:28.039Z,94189.38
2024-02-22T19:08:54.922Z,94182.34
2024-02-22T19:11:26.008Z,94181.47
2024-02-22T19:13:53.388Z,94172.53
2024-02-22T19:16:20.167Z,94172.84
2024-02-22T19:18:47.004Z,94162.16
2024-02-22T19:21:14.662Z,94165.94
2024-02-22T19:23:42.391Z,94159.47
2024-02-22T19:26:09.889Z,94147.97
2024-02-22T19:28:36.600Z,94154.00
2024-02-22T19:31:04.463Z,94158.13
2024-02-22T19:33:31.313Z,94160.78
2024-02-22T19:35:58.025Z,94148.84
2024-02-22T19:38:25.365Z,94147.63
2024-02-22T19:40:52.598Z,94148.94
2024-02-22T19:43:20.349Z,94154.31
2024-02-22T19:45:47.272Z,94157.31
2024-02-22T19:48:14.058Z,94176.03
2024-02-22T19:50:42.596Z,94174.47
2024-02-22T19:53:09.840Z,94180.81
2024-02-22T19:55:36.698Z,94178.63
2024-02-22T19:58:05.116Z,94183.72
2024-02-22T20:00:34.715Z,94171.44
2024-02-22T20:03:01.495Z,94179.94
2024-02-22T20:05:28.281Z,94174.59
2024-02-22T20:07:55.389Z,94167.66
2024-02-22T20:10:22.460Z,94173.94
2024-02-22T20:12:49.800Z,94161.09
2024-02-22T20:15:16.561Z,94159.09
2024-02-22T20:17:44.672Z,94152.03
2024-02-22T20:20:12.703Z,94126.72
2024-02-22T20:22:39.718Z,94126.41
2024-02-22T20:25:09.889Z,94128.53
2024-02-22T20:27:36.661Z,94130.34
2024-02-22T20:30:09.940Z,94127.75
2024-02-22T20:32:37.253Z,94130.00
2024-02-22T20:35:10.030Z,94121.81
2024-02-22T20:37:42.842Z,94121.28
2024-02-22T20:40:10.238Z,94109.81
2024-02-22T20:42:36.913Z,94108.34
2024-02-22T20:45:04.015Z,94108.13
2024-02-22T20:47:32.736Z,94093.72
2024-02-22T20:49:59.713Z,94092.59
2024-02-22T20:52:26.539Z,94102.78
2024-02-22T20:54:53.231Z,94097.75
2024-02-22T20:57:20.120Z,94095.41
2024-02-22T20:59:46.934Z,94101.97
2024-02-22T21:02:13.830Z,94096.25
2024-02-22T21:04:40.747Z,94089.63
2024-02-22T21:07:07.674Z,94094.34
2024-02-22T21:09:34.349Z,94105.53
2024-02-22T21:12:04.033Z,94099.53
2024-02-22T21:14:31.096Z,94096.31
2024-02-22T21:16:57.901Z,94089.63
2024-02-22T21:19:24.620Z,94102.91
2024-02-22T21:21:51.349Z,94094.69
2024-02-22T21:24:18.267Z,94097.94
2024-02-22T21:26:45.005Z,94091.16
2024-02-22T21:29:12.761Z,94088.38
2024-02-22T21:31:39.503Z,94098.41
2024-02-22T21:34:07.289Z,94091.59
2024-02-22T21:36:34.509Z,94095.59
2024-02-22T21:39:06.785Z,94089.50
2024-02-22T21:41:36.581Z,94090.09
2024-02-22T21:44:03.738Z,94079.88
2024-02-22T21:46:30.652Z,94073.75
2024-02-22T21:48:57.569Z,94095.03
2024-02-22T21:51:24.298Z,94102.81
2024-02-22T21:53:51.101Z,94091.56
2024-02-22T21:56:17.888Z,94086.53
2024-02-22T21:58:44.755Z,94098.13
2024-02-22T22:01:11.649Z,94095.66
2024-02-22T22:03:38.429Z,94077.22
2024-02-22T22:06:05.473Z,94093.97
2024-02-22T22:08:33.226Z,94093.31
2024-02-22T22:11:00.176Z,94085.56
2024-02-22T22:13:26.993Z,94078.75
2024-02-22T22:15:53.671Z,94077.53
2024-02-22T22:18:20.486Z,94070.72
2024-02-22T22:20:47.202Z,94067.63
2024-02-22T22:23:14.403Z,94059.94
2024-02-22T22:25:41.414Z,94059.03
2024-02-22T22:28:08.132Z,94070.00
2024-02-22T22:30:35.997Z,94066.47
2024-02-22T22:33:03.358Z,94061.13
2024-02-22T22:35:30.183Z,94077.81
2024-02-22T22:37:56.914Z,94084.94
2024-02-22T22:40:23.662Z,94091.22
2024-02-22T22:42:50.341Z,94089.38
2024-02-22T22:45:18.892Z,94088.06
2024-02-22T22:47:46.505Z,94082.22
2024-02-22T22:50:13.926Z,94076.63
2024-02-22T22:52:40.818Z,94080.69
2024-02-22T22:55:08.162Z,94075.66
2024-02-22T22:57:34.926Z,94077.56
2024-02-22T23:00:08.068Z,94077.16
2024-02-22T23:02:34.868Z,94083.41
2024-02-22T23:05:01.848Z,94078.69
2024-02-22T23:07:28.627Z,94080.03
2024-02-22T23:09:55.282Z,94067.69
2024-02-22T23:12:22.198Z,94079.56
2024-02-22T23:14:48.967Z,94070.38
2024-02-22T23:17:15.650Z,94063.59
2024-02-22T23:19:42.394Z,94072.22
2024-02-22T23:22:09.106Z,94065.56
2024-02-22T23:24:35.831Z,94069.59
2024-02-22T23:27:02.491Z,94070.97
2024-02-22T23:29:29.308Z,94079.69
2024-02-22T23:31:56.011Z,94086.16
2024-02-22T23:34:22.912Z,94084.97
2024-02-22T23:36:49.677Z,94093.31
2024-02-22T23:39:17.259Z,94096.19
2024-02-22T23:41:44.014Z,94104.25
2024-02-22T23:44:11.444Z,94111.94
2024-02-22T23:46:38.597Z,94115.91
2024-02-22T23:49:05.533Z,94112.81
2024-02-22T23:51:32.272Z,94130.06
2024-02-22T23:54:01.374Z,94125.50
2024-02-22T23:56:28.284Z,94129.28
2024-02-22T23:58:55.058Z,94130.31
